createdAt,value
2023-04-07T00:01:08.501Z,4.76
2023-04-07T00:03:35.947Z,4.57
2023-04-07T00:06:02.706Z,4.91
2023-04-07T00:08:29.432Z,5.18
2023-04-07T00:10:56.409Z,5.23
2023-04-07T00:13:23.083Z,5.33
2023-04-07T00:15:49.862Z,5.24
2023-04-07T00:18:16.628Z,5.32
2023-04-07T00:20:43.268Z,5.18
2023-04-07T00:23:09.960Z,5.39
2023-04-07T00:25:36.629Z,5.40
2023-04-07T00:28:03.664Z,5.46
2023-04-07T00:30:30.469Z,5.31
2023-04-07T00:32:57.394Z,5.13
2023-04-07T00:35:24.197Z,4.94
2023-04-07T00:37:50.890Z,5.13
2023-04-07T00:40:17.576Z,5.45
2023-04-07T00:42:44.237Z,5.78
2023-04-07T00:45:11.712Z,6.06
2023-04-07T00:47:38.520Z,5.97
2023-04-07T00:50:05.492Z,5.75
2023-04-07T00:52:35.467Z,5.42
2023-04-07T00:55:02.112Z,6.15
2023-04-07T00:57:28.930Z,5.97
2023-04-07T00:59:55.714Z,6.48
2023-04-07T01:02:41.635Z,6.34
2023-04-07T01:05:11.624Z,5.77
2023-04-07T01:07:38.512Z,5.64
2023-04-07T01:10:05.974Z,5.95
2023-04-07T01:12:36.951Z,6.01
2023-04-07T01:15:10.428Z,5.56
2023-04-07T01:17:38.220Z,5.83
2023-04-07T01:20:08.102Z,6.36
2023-04-07T01:22:42.420Z,5.48
2023-04-07T01:25:30.816Z,5.46
2023-04-07T01:28:26.635Z,6.11
2023-04-07T01:30:53.295Z,5.89
2023-04-07T01:33:19.945Z,6.18
2023-04-07T01:35:46.581Z,6.02
2023-04-07T01:38:13.299Z,6.35
2023-04-07T01:40:40.070Z,6.22
2023-04-07T01:43:06.755Z,5.88
2023-04-07T01:45:34.639Z,5.82
2023-04-07T01:48:01.786Z,5.60
2023-04-07T01:50:28.615Z,5.62
2023-04-07T01:52:55.384Z,5.59
2023-04-07T01:55:22.430Z,5.34
2023-04-07T01:57:49.119Z,5.48
2023-04-07T02:00:15.967Z,5.10
2023-04-07T02:02:45.004Z,5.43
2023-04-07T02:05:13.330Z,5.51
2023-04-07T02:07:39.998Z,5.48
2023-04-07T02:10:07.487Z,5.51
2023-04-07T02:12:34.157Z,5.09
2023-04-07T02:15:00.961Z,5.69
2023-04-07T02:17:27.755Z,5.34
2023-04-07T02:19:54.512Z,5.30
2023-04-07T02:22:21.285Z,5.07
2023-04-07T02:24:47.981Z,5.57
2023-04-07T02:27:14.707Z,5.29
2023-04-07T02:29:41.446Z,4.89
2023-04-07T02:32:08.255Z,4.72
2023-04-07T02:34:35.051Z,4.61
2023-04-07T02:37:01.815Z,4.78
2023-04-07T02:39:28.582Z,4.65
2023-04-07T02:41:55.257Z,5.21
2023-04-07T02:44:21.934Z,5.32
2023-04-07T02:46:48.595Z,5.74
2023-04-07T02:49:15.312Z,5.18
2023-04-07T02:51:42.018Z,5.36
2023-04-07T02:54:08.718Z,5.63
2023-04-07T02:56:35.469Z,5.35
2023-04-07T02:59:02.174Z,5.41
2023-04-07T03:01:28.914Z,5.16
2023-04-07T03:03:56.278Z,5.05
2023-04-07T03:06:23.158Z,5.48
2023-04-07T03:08:49.861Z,5.18
2023-04-07T03:11:16.522Z,5.42
2023-04-07T03:13:43.172Z,5.11
2023-04-07T03:16:09.811Z,4.90
2023-04-07T03:18:36.472Z,5.36
2023-04-07T03:21:03.744Z,5.44
2023-04-07T03:23:30.483Z,5.61
2023-04-07T03:25:58.081Z,5.67
2023-04-07T03:28:24.736Z,5.80
2023-04-07T03:30:51.531Z,5.22
2023-04-07T03:33:18.261Z,5.27
2023-04-07T03:35:45.018Z,4.82
2023-04-07T03:38:11.677Z,4.70
2023-04-07T03:40:38.340Z,5.35
2023-04-07T03:43:05.093Z,5.01
2023-04-07T03:45:33.453Z,5.06
2023-04-07T03:48:00.236Z,4.91
2023-04-07T03:50:27.007Z,5.06
2023-04-07T03:52:53.702Z,4.99
2023-04-07T03:55:20.661Z,5.20
2023-04-07T03:57:47.313Z,4.95
2023-04-07T04:00:14.301Z,5.09
2023-04-07T04:02:41.096Z,4.84
2023-04-07T04:05:07.836Z,4.78
2023-04-07T04:07:34.508Z,4.83
2023-04-07T04:10:01.211Z,4.49
2023-04-07T04:12:27.862Z,5.20
2023-04-07T04:14:54.521Z,5.19
2023-04-07T04:17:21.211Z,5.07
2023-04-07T04:19:47.993Z,4.93
2023-04-07T04:22:14.727Z,4.62
2023-04-07T04:24:42.154Z,4.67
2023-04-07T04:27:08.862Z,4.92
2023-04-07T04:29:35.564Z,4.58
2023-04-07T04:32:02.207Z,4.72
2023-04-07T04:34:28.860Z,5.17
2023-04-07T04:36:55.877Z,5.08
2023-04-07T04:39:22.631Z,4.54
2023-04-07T04:41:49.265Z,4.48
2023-04-07T04:44:16.164Z,5.07
2023-04-07T04:46:42.851Z,4.72
2023-04-07T04:49:09.823Z,4.94
2023-04-07T04:51:36.545Z,5.28
2023-04-07T04:54:04.176Z,5.31
2023-04-07T04:56:30.973Z,5.24
2023-04-07T04:58:57.650Z,5.13
2023-04-07T05:01:24.315Z,5.60
2023-04-07T05:03:51.248Z,5.44
2023-04-07T05:06:18.196Z,5.56
2023-04-07T05:08:44.923Z,5.80
2023-04-07T05:11:11.911Z,4.89
2023-04-07T05:13:38.637Z,5.09
2023-04-07T05:16:05.674Z,5.79
2023-04-07T05:18:32.476Z,5.62
2023-04-07T05:20:59.212Z,5.00
2023-04-07T05:23:25.914Z,4.85
2023-04-07T05:25:52.593Z,5.53
2023-04-07T05:28:19.386Z,5.41
2023-04-07T05:30:46.181Z,4.96
2023-04-07T05:33:13.471Z,5.31
2023-04-07T05:35:40.111Z,5.19
2023-04-07T05:38:06.813Z,5.10
2023-04-07T05:40:35.032Z,5.02
2023-04-07T05:43:02.965Z,5.02
2023-04-07T05:45:29.624Z,5.05
2023-04-07T05:47:56.409Z,5.34
2023-04-07T05:50:23.151Z,5.27
2023-04-07T05:52:49.884Z,5.02
2023-04-07T05:55:16.533Z,5.32
2023-04-07T05:57:43.245Z,5.62
2023-04-07T06:00:10.983Z,5.13
2023-04-07T06:02:37.788Z,5.74
2023-04-07T06:05:04.784Z,5.90
2023-04-07T06:07:31.518Z,5.89
2023-04-07T06:09:58.232Z,6.22
2023-04-07T06:12:24.921Z,5.82
2023-04-07T06:14:52.767Z,6.09
2023-04-07T06:17:19.532Z,5.31
2023-04-07T06:19:46.412Z,6.00
2023-04-07T06:22:13.133Z,6.53
2023-04-07T06:24:39.825Z,6.46
2023-04-07T06:27:06.923Z,6.77
2023-04-07T06:29:33.915Z,6.03
2023-04-07T06:32:01.100Z,5.55
2023-04-07T06:34:27.793Z,5.58
2023-04-07T06:36:55.194Z,5.35
2023-04-07T06:39:22.588Z,5.68
2023-04-07T06:41:49.329Z,5.85
2023-04-07T06:44:15.977Z,5.89
2023-04-07T06:46:42.729Z,5.39
2023-04-07T06:49:09.389Z,5.05
2023-04-07T06:51:36.170Z,5.22
2023-04-07T06:54:02.895Z,5.31
2023-04-07T06:56:29.645Z,5.19
2023-04-07T06:58:56.396Z,5.51
2023-04-07T07:01:23.069Z,5.79
2023-04-07T07:03:50.133Z,6.05
2023-04-07T07:06:16.992Z,5.98
2023-04-07T07:08:43.704Z,6.57
2023-04-07T07:11:10.478Z,6.12
2023-04-07T07:13:37.265Z,6.33
2023-04-07T07:16:04.133Z,6.21
2023-04-07T07:18:31.860Z,6.07
2023-04-07T07:20:58.591Z,6.13
2023-04-07T07:23:25.315Z,6.06
2023-04-07T07:25:51.965Z,5.54
2023-04-07T07:28:18.698Z,5.87
2023-04-07T07:30:45.413Z,6.08
2023-04-07T07:33:14.653Z,6.33
2023-04-07T07:35:41.463Z,6.90
2023-04-07T07:38:08.197Z,6.76
2023-04-07T07:40:34.938Z,6.66
2023-04-07T07:43:01.613Z,6.95
2023-04-07T07:45:28.259Z,6.56
2023-04-07T07:47:54.940Z,6.66
2023-04-07T07:50:21.596Z,7.04
2023-04-07T07:52:48.443Z,6.60
2023-04-07T07:55:15.119Z,6.58
2023-04-07T07:57:41.894Z,6.52
2023-04-07T08:00:08.991Z,6.66
2023-04-07T08:02:36.749Z,6.13
2023-04-07T08:05:03.552Z,6.32
2023-04-07T08:07:30.896Z,6.65
2023-04-07T08:09:57.603Z,6.61
2023-04-07T08:12:24.254Z,6.29
2023-04-07T08:14:51.050Z,6.46
2023-04-07T08:17:17.714Z,6.43
2023-04-07T08:19:44.435Z,6.57
2023-04-07T08:22:11.085Z,6.28
2023-04-07T08:24:37.762Z,6.72
2023-04-07T08:27:04.638Z,7.05
2023-04-07T08:29:32.365Z,7.03
2023-04-07T08:31:59.153Z,6.96
2023-04-07T08:34:25.902Z,6.63
2023-04-07T08:36:52.614Z,7.10
2023-04-07T08:39:19.733Z,7.13
2023-04-07T08:41:46.725Z,6.56
2023-04-07T08:44:13.542Z,6.78
2023-04-07T08:46:40.626Z,7.00
2023-04-07T08:49:11.323Z,6.31
2023-04-07T08:51:38.350Z,6.06
2023-04-07T08:54:11.668Z,6.13
2023-04-07T08:56:38.793Z,6.03
2023-04-07T08:59:06.554Z,6.20
2023-04-07T09:01:33.447Z,5.98
2023-04-07T09:04:00.327Z,6.00
2023-04-07T09:06:27.515Z,6.40
2023-04-07T09:08:55.299Z,6.36
2023-04-07T09:11:23.532Z,6.48
2023-04-07T09:13:50.764Z,6.96
2023-04-07T09:16:17.504Z,6.78
2023-04-07T09:18:44.233Z,6.38
2023-04-07T09:21:12.164Z,6.29
2023-04-07T09:23:40.135Z,6.12
2023-04-07T09:26:19.588Z,5.69
2023-04-07T09:28:46.933Z,5.54
2023-04-07T09:31:13.804Z,5.80
2023-04-07T09:33:40.776Z,5.86
2023-04-07T09:36:07.565Z,5.43
2023-04-07T09:38:38.298Z,5.61
2023-04-07T09:41:09.021Z,5.87
2023-04-07T09:43:37.728Z,5.81
2023-04-07T09:46:08.682Z,6.00
2023-04-07T09:48:35.411Z,6.21
2023-04-07T09:51:05.807Z,6.07
2023-04-07T09:53:42.215Z,6.48
2023-04-07T09:56:11.884Z,5.73
2023-04-07T09:58:40.035Z,5.84
2023-04-07T10:01:09.883Z,6.05
2023-04-07T10:03:37.430Z,6.39
2023-04-07T10:06:04.604Z,6.70
2023-04-07T10:08:31.830Z,6.43
2023-04-07T10:10:59.147Z,6.18
2023-04-07T10:13:26.086Z,6.40
2023-04-07T10:15:52.771Z,5.78
2023-04-07T10:18:20.057Z,5.96
2023-04-07T10:20:46.780Z,5.81
2023-04-07T10:23:14.641Z,5.75
2023-04-07T10:25:41.518Z,5.81
2023-04-07T10:28:08.743Z,5.72
2023-04-07T10:30:35.611Z,5.52
2023-04-07T10:33:02.725Z,5.62
2023-04-07T10:35:29.932Z,5.57
2023-04-07T10:38:13.827Z,6.04
2023-04-07T10:40:41.280Z,6.11
2023-04-07T10:43:11.657Z,6.20
2023-04-07T10:45:52.453Z,6.12
2023-04-07T10:48:19.493Z,5.68
2023-04-07T10:50:46.583Z,5.55
2023-04-07T10:53:14.233Z,5.58
2023-04-07T10:55:41.320Z,5.80
2023-04-07T10:58:14.876Z,6.16
2023-04-07T11:00:41.586Z,6.06
2023-04-07T11:03:14.798Z,6.24
2023-04-07T11:05:41.855Z,5.96
2023-04-07T11:08:08.626Z,5.90
2023-04-07T11:10:35.897Z,6.33
2023-04-07T11:13:03.684Z,6.27
2023-04-07T11:15:30.621Z,6.58
2023-04-07T11:18:26.783Z,6.79
2023-04-07T11:21:00.145Z,6.09
2023-04-07T11:23:27.649Z,6.44
2023-04-07T11:26:01.399Z,5.92
2023-04-07T11:28:28.284Z,5.58
2023-04-07T11:30:55.142Z,5.56
2023-04-07T11:33:22.974Z,5.15
2023-04-07T11:35:49.665Z,5.66
2023-04-07T11:38:16.678Z,6.18
2023-04-07T11:40:43.461Z,5.64
2023-04-07T11:43:17.481Z,6.06
2023-04-07T11:45:44.337Z,6.60
2023-04-07T11:48:31.276Z,7.00
2023-04-07T11:50:57.962Z,7.11
2023-04-07T11:53:27.628Z,7.54
2023-04-07T11:56:16.825Z,7.48
2023-04-07T11:58:50.053Z,7.60
2023-04-07T12:01:16.786Z,8.13
2023-04-07T12:04:00.054Z,8.09
2023-04-07T12:06:29.282Z,8.36
2023-04-07T12:08:55.984Z,8.34
2023-04-07T12:11:22.821Z,8.33
2023-04-07T12:13:49.859Z,8.05
2023-04-07T12:16:16.828Z,7.66
2023-04-07T12:18:43.906Z,7.60
2023-04-07T12:21:10.570Z,7.46
2023-04-07T12:23:37.214Z,7.58
2023-04-07T12:26:03.921Z,8.15
2023-04-07T12:28:30.726Z,8.13
2023-04-07T12:30:57.375Z,8.27
2023-04-07T12:33:24.072Z,8.15
2023-04-07T12:35:50.834Z,7.59
2023-04-07T12:38:17.546Z,7.59
2023-04-07T12:40:44.188Z,7.86
2023-04-07T12:43:11.054Z,8.13
2023-04-07T12:45:37.876Z,8.20
2023-04-07T12:48:05.531Z,8.12
2023-04-07T12:50:32.231Z,8.19
2023-04-07T12:53:05.509Z,8.63
2023-04-07T12:55:33.824Z,7.97
2023-04-07T12:58:00.679Z,7.65
2023-04-07T13:00:27.385Z,7.84
2023-04-07T13:02:54.181Z,8.10
2023-04-07T13:05:20.966Z,7.77
2023-04-07T13:07:49.628Z,8.06
2023-04-07T13:10:16.518Z,7.51
2023-04-07T13:12:43.448Z,7.18
2023-04-07T13:15:10.227Z,6.66
2023-04-07T13:17:37.227Z,7.42
2023-04-07T13:20:04.585Z,7.60
2023-04-07T13:22:32.251Z,7.52
2023-04-07T13:25:00.235Z,7.25
2023-04-07T13:27:27.743Z,7.16
2023-04-07T13:29:54.407Z,7.18
2023-04-07T13:32:21.068Z,7.24
2023-04-07T13:34:47.728Z,6.97
2023-04-07T13:37:14.414Z,6.78
2023-04-07T13:39:41.343Z,6.64
2023-04-07T13:42:12.134Z,6.85
2023-04-07T13:44:40.252Z,7.25
2023-04-07T13:47:07.691Z,7.03
2023-04-07T13:49:34.538Z,6.94
2023-04-07T13:52:01.391Z,7.45
2023-04-07T13:54:28.071Z,8.12
2023-04-07T13:56:54.720Z,8.23
2023-04-07T13:59:21.597Z,7.90
2023-04-07T14:01:48.725Z,7.54
2023-04-07T14:04:15.615Z,7.57
2023-04-07T14:06:42.933Z,7.48
2023-04-07T14:09:09.697Z,7.98
2023-04-07T14:11:36.450Z,7.84
2023-04-07T14:14:03.179Z,7.97
2023-04-07T14:16:30.237Z,8.12
2023-04-07T14:18:57.366Z,8.12
2023-04-07T14:21:24.323Z,8.13
2023-04-07T14:23:52.007Z,7.80
2023-04-07T14:26:18.923Z,7.92
2023-04-07T14:28:45.929Z,7.71
2023-04-07T14:31:13.519Z,8.05
2023-04-07T14:33:40.228Z,7.60
2023-04-07T14:36:06.985Z,7.31
2023-04-07T14:38:35.232Z,7.60
2023-04-07T14:43:32.976Z,8.06
2023-04-07T14:46:00.035Z,7.84
2023-04-07T14:48:26.902Z,7.49
2023-04-07T14:51:05.965Z,8.06
2023-04-07T14:53:36.918Z,7.79
2023-04-07T14:56:07.001Z,7.93
2023-04-07T14:58:33.849Z,8.33
2023-04-07T15:01:00.579Z,8.26
2023-04-07T15:03:27.457Z,7.93
2023-04-07T15:05:54.241Z,7.99
2023-04-07T15:08:20.968Z,7.82
2023-04-07T15:10:47.696Z,7.75
2023-04-07T15:13:14.403Z,7.56
2023-04-07T15:15:41.113Z,7.34
2023-04-07T15:18:07.881Z,7.29
2023-04-07T15:20:34.564Z,7.57
2023-04-07T15:23:01.615Z,7.50
2023-04-07T15:25:28.823Z,7.53
2023-04-07T15:27:55.570Z,7.80
2023-04-07T15:30:22.308Z,7.42
2023-04-07T15:33:01.262Z,7.51
2023-04-07T15:35:27.969Z,7.63
2023-04-07T15:37:54.681Z,7.54
2023-04-07T15:40:21.390Z,7.70
2023-04-07T15:42:48.220Z,7.70
2023-04-07T15:45:14.973Z,6.87
2023-04-07T15:47:41.648Z,6.94
2023-04-07T15:50:08.678Z,7.21
2023-04-07T15:52:35.519Z,6.75
2023-04-07T15:55:02.216Z,7.09
2023-04-07T15:57:28.859Z,7.32
2023-04-07T15:59:55.521Z,6.89
2023-04-07T16:02:22.280Z,6.83
2023-04-07T16:04:49.441Z,6.74
2023-04-07T16:07:16.148Z,5.95
2023-04-07T16:09:42.829Z,6.62
2023-04-07T16:12:09.532Z,6.29
2023-04-07T16:14:36.540Z,6.33
2023-04-07T16:17:03.336Z,6.62
2023-04-07T16:19:30.096Z,6.89
2023-04-07T16:21:56.801Z,6.86
2023-04-07T16:24:23.444Z,6.87
2023-04-07T16:26:51.516Z,6.73
2023-04-07T16:29:21.163Z,6.22
2023-04-07T16:31:47.879Z,6.06
2023-04-07T16:34:14.784Z,5.86
2023-04-07T16:36:41.508Z,6.15
2023-04-07T16:39:08.208Z,6.07
2023-04-07T16:41:34.924Z,6.33
2023-04-07T16:44:01.791Z,6.16
2023-04-07T16:46:29.064Z,5.97
2023-04-07T16:48:55.850Z,5.63
2023-04-07T16:51:22.539Z,5.67
2023-04-07T16:53:49.363Z,5.99
2023-04-07T16:56:17.326Z,6.28
2023-04-07T16:58:44.012Z,6.12
2023-04-07T17:01:10.890Z,6.16
2023-04-07T17:03:37.987Z,6.32
2023-04-07T17:06:08.340Z,6.55
2023-04-07T17:08:35.671Z,6.67
2023-04-07T17:11:11.982Z,6.65
2023-04-07T17:13:40.158Z,6.73
2023-04-07T17:16:07.078Z,6.75
2023-04-07T17:18:34.056Z,6.75
2023-04-07T17:21:00.839Z,6.62
2023-04-07T17:23:28.526Z,6.97
2023-04-07T17:25:55.399Z,7.15
2023-04-07T17:28:22.085Z,7.38
2023-04-07T17:30:48.862Z,6.91
2023-04-07T17:33:15.557Z,7.05
2023-04-07T17:35:42.341Z,7.21
2023-04-07T17:38:09.065Z,7.14
2023-04-07T17:40:35.883Z,7.34
2023-04-07T17:43:02.890Z,7.11
2023-04-07T17:45:29.591Z,7.67
2023-04-07T17:47:56.484Z,7.47
2023-04-07T17:50:23.639Z,7.29
2023-04-07T17:52:51.537Z,7.82
2023-04-07T17:55:18.717Z,7.58
2023-04-07T17:57:45.914Z,7.64
2023-04-07T18:00:12.929Z,7.13
2023-04-07T18:02:40.544Z,7.08
2023-04-07T18:05:07.561Z,7.52
2023-04-07T18:07:34.502Z,7.47
2023-04-07T18:10:01.512Z,7.31
2023-04-07T18:12:28.229Z,7.40
2023-04-07T18:14:54.920Z,7.27
2023-04-07T18:17:21.642Z,7.62
2023-04-07T18:19:48.666Z,7.96
2023-04-07T18:22:16.368Z,7.98
2023-04-07T18:24:43.048Z,8.10
2023-04-07T18:27:10.352Z,8.09
2023-04-07T18:29:37.113Z,8.44
2023-04-07T18:32:03.820Z,8.33
2023-04-07T18:34:30.707Z,8.87
2023-04-07T18:36:57.390Z,8.62
2023-04-07T18:39:28.091Z,8.43
2023-04-07T18:41:55.667Z,8.49
2023-04-07T18:44:22.354Z,8.68
2023-04-07T18:46:49.032Z,8.94
2023-04-07T18:49:16.117Z,8.75
2023-04-07T18:51:44.616Z,9.16
2023-04-07T18:54:12.422Z,9.00
2023-04-07T18:56:39.225Z,9.32
2023-04-07T18:59:07.638Z,9.22
2023-04-07T19:01:34.460Z,9.07
2023-04-07T19:04:01.860Z,9.00
2023-04-07T19:06:30.504Z,8.87
2023-04-07T19:08:57.921Z,8.70
2023-04-07T19:11:24.645Z,8.64
2023-04-07T19:13:53.443Z,8.36
2023-04-07T19:16:21.940Z,8.59
2023-04-07T19:18:48.666Z,8.56
2023-04-07T19:21:15.382Z,8.58
2023-04-07T19:23:42.408Z,8.03
2023-04-07T19:26:12.266Z,8.04
2023-04-07T19:28:41.274Z,8.04
2023-04-07T19:31:11.134Z,8.06
2023-04-07T19:33:37.892Z,8.09
2023-04-07T19:36:04.746Z,7.69
2023-04-07T19:38:31.813Z,8.05
2023-04-07T19:40:58.472Z,8.05
2023-04-07T19:43:25.133Z,8.23
2023-04-07T19:45:51.923Z,8.80
2023-04-07T19:48:19.232Z,8.38
2023-04-07T19:50:49.920Z,8.04
2023-04-07T19:53:16.942Z,8.15
2023-04-07T19:55:43.958Z,8.31
2023-04-07T19:58:10.925Z,8.34
2023-04-07T20:00:37.937Z,8.55
2023-04-07T20:03:05.045Z,8.25
2023-04-07T20:05:32.275Z,8.80
2023-04-07T20:07:59.487Z,8.89
2023-04-07T20:10:26.166Z,8.49
2023-04-07T20:12:52.816Z,8.25
2023-04-07T20:15:19.657Z,8.27
2023-04-07T20:17:48.130Z,8.20
2023-04-07T20:20:14.979Z,8.31
2023-04-07T20:22:41.632Z,8.39
2023-04-07T20:25:08.362Z,8.38
2023-04-07T20:27:35.032Z,7.88
2023-04-07T20:30:02.185Z,8.10
2023-04-07T20:32:28.891Z,8.10
2023-04-07T20:34:55.623Z,8.14
2023-04-07T20:37:22.791Z,8.32
2023-04-07T20:39:49.506Z,8.34
2023-04-07T20:42:16.150Z,8.16
2023-04-07T20:44:42.960Z,8.13
2023-04-07T20:47:10.385Z,8.22
2023-04-07T20:49:39.553Z,8.28
2023-04-07T20:52:06.610Z,8.12
2023-04-07T20:54:33.637Z,8.38
2023-04-07T20:57:01.027Z,8.69
2023-04-07T20:59:28.204Z,8.91
2023-04-07T21:01:55.529Z,8.45
2023-04-07T21:04:24.552Z,8.46
2023-04-07T21:06:51.418Z,8.65
2023-04-07T21:09:18.116Z,8.40
2023-04-07T21:11:44.751Z,8.89
2023-04-07T21:14:11.844Z,8.78
2023-04-07T21:16:38.566Z,8.58
2023-04-07T21:19:06.409Z,8.58
2023-04-07T21:21:33.135Z,8.50
2023-04-07T21:23:59.885Z,8.51
2023-04-07T21:26:26.755Z,8.57
2023-04-07T21:28:53.601Z,8.79
2023-04-07T21:31:23.805Z,8.96
2023-04-07T21:33:50.616Z,9.05
2023-04-07T21:36:17.294Z,8.95
2023-04-07T21:38:44.055Z,8.80
2023-04-07T21:41:10.729Z,8.58
2023-04-07T21:43:37.410Z,8.81
2023-04-07T21:46:04.146Z,8.73
2023-04-07T21:48:30.896Z,8.87
2023-04-07T21:50:57.858Z,8.77
2023-04-07T21:53:24.544Z,8.29
2023-04-07T21:55:52.043Z,8.64
2023-04-07T21:58:18.691Z,8.70
2023-04-07T22:00:48.238Z,8.50
2023-04-07T22:03:15.300Z,7.99
2023-04-07T22:05:42.135Z,8.33
2023-04-07T22:08:08.844Z,8.60
2023-04-07T22:10:35.496Z,8.29
2023-04-07T22:13:02.147Z,8.17
2023-04-07T22:15:28.897Z,8.25
2023-04-07T22:17:56.482Z,8.16
2023-04-07T22:20:23.295Z,8.24
2023-04-07T22:22:49.935Z,8.29
2023-04-07T22:25:16.718Z,8.50
2023-04-07T22:27:43.381Z,8.32
2023-04-07T22:30:11.048Z,8.38
2023-04-07T22:32:37.819Z,8.35
2023-04-07T22:35:04.618Z,8.26
2023-04-07T22:37:31.297Z,8.00
2023-04-07T22:39:57.979Z,7.95
2023-04-07T22:42:24.634Z,8.02
2023-04-07T22:44:51.600Z,8.05
2023-04-07T22:47:18.423Z,7.80
2023-04-07T22:49:45.124Z,8.17
2023-04-07T22:52:11.778Z,8.12
2023-04-07T22:54:38.483Z,8.20
2023-04-07T22:57:05.295Z,8.00
2023-04-07T22:59:32.028Z,7.94
2023-04-07T23:01:58.865Z,8.08
2023-04-07T23:04:25.667Z,8.23
2023-04-07T23:06:52.380Z,7.74
2023-04-07T23:09:19.196Z,8.02
2023-04-07T23:11:47.359Z,8.02
2023-04-07T23:14:14.118Z,8.13
2023-04-07T23:16:40.940Z,8.43
2023-04-07T23:19:11.550Z,7.93
2023-04-07T23:21:39.741Z,7.86
2023-04-07T23:24:06.422Z,8.00
2023-04-07T23:26:33.105Z,8.13
2023-04-07T23:28:59.768Z,7.88
2023-04-07T23:31:26.844Z,7.89
2023-04-07T23:33:53.576Z,8.17
2023-04-07T23:36:20.472Z,7.97
2023-04-07T23:38:47.179Z,7.73
2023-04-07T23:41:13.887Z,7.77
2023-04-07T23:43:40.545Z,7.65
2023-04-07T23:46:07.259Z,7.17
2023-04-07T23:48:33.953Z,7.68
2023-04-07T23:51:00.594Z,7.17
2023-04-07T23:53:27.266Z,7.32
2023-04-07T23:55:54.014Z,7.42
2023-04-07T23:58:20.676Z,7.57
